Time;durP1;ratioP1;P1;durP2;ratioP2;P2;SDS_P1;SDS_P2;PMS_P1;PMS_P2;Temp;Humidity;BMP_temperature;BMP_pressure;BME280_temperature;BME280_humidity;BME280_pressure;Samples;Min_cycle;Max_cycle;Signal;HPM_P1;HPM_P2
2023/10/21 00:02:22;;;;;;;6.53;2.10;;;;;;;;;;5034148;28;20269;-84
2023/10/21 00:04:48;;;;;;;3.90;2.65;;;;;;;;;;5029620;28;20208;-83
2023/10/21 00:07:16;;;;;;;5.95;3.25;;;;;;;;;;5028632;28;20220;-85
2023/10/21 00:09:44;;;;;;;3.60;2.80;;;;;;;;;;5029253;28;20197;-82
2023/10/21 00:12:12;;;;;;;2.35;2.17;;;;;;;;;;5028589;28;20192;-84
2023/10/21 00:14:40;;;;;;;6.88;3.40;;;;;;;;;;5028916;28;20285;-83
2023/10/21 00:17:07;;;;;;;5.80;3.08;;;;;;;;;;5029087;28;20244;-82
2023/10/21 00:19:37;;;;;;;5.13;2.60;;;;;;;;;;5029469;28;20274;-83
2023/10/21 00:22:05;;;;;;;4.28;3.00;;;;;;;;;;5028899;28;20222;-84
2023/10/21 00:24:33;;;;;;;4.00;2.75;;;;;;;;;;5029063;28;20206;-84
2023/10/21 00:27:03;;;;;;;3.83;2.78;;;;;;;;;;5025813;28;20219;-84
2023/10/21 00:29:31;;;;;;;5.15;3.33;;;;;;;;;;5010072;28;20229;-83
2023/10/21 00:32:01;;;;;;;3.83;2.95;;;;;;;;;;5012954;28;20308;-83
2023/10/21 00:34:38;;;;;;;3.83;2.85;;;;;;;;;;5014035;28;20207;-84
2023/10/21 00:37:04;;;;;;;4.82;2.75;;;;;;;;;;5013632;28;20201;-84
2023/10/21 00:39:37;;;;;;;7.22;3.40;;;;;;;;;;5021508;28;20207;-84
2023/10/21 00:42:09;;;;;;;4.10;3.60;;;;;;;;;;5033320;28;20259;-84
2023/10/21 00:44:37;;;;;;;4.80;3.38;;;;;;;;;;5032916;28;20621;-84
2023/10/21 00:47:09;;;;;;;4.00;2.65;;;;;;;;;;5033154;28;20220;-84
2023/10/21 00:49:39;;;;;;;5.63;3.07;;;;;;;;;;5051693;28;20226;-83
2023/10/21 00:52:07;;;;;;;3.78;3.17;;;;;;;;;;5056136;28;20304;-83
2023/10/21 00:54:36;;;;;;;7.00;3.60;;;;;;;;;;5057989;28;20197;-83
2023/10/21 00:57:04;;;;;;;7.22;4.03;;;;;;;;;;5056007;28;20714;-82
2023/10/21 00:59:34;;;;;;;4.55;3.50;;;;;;;;;;5035051;28;20701;-82
2023/10/21 01:02:03;;;;;;;4.53;3.33;;;;;;;;;;5033959;28;20224;-82
2023/10/21 01:04:30;;;;;;;4.80;3.23;;;;;;;;;;5033828;28;20217;-83
2023/10/21 01:06:59;;;;;;;5.37;3.13;;;;;;;;;;5033065;28;20206;-83
2023/10/21 01:09:31;;;;;;;9.43;3.53;;;;;;;;;;5033461;28;20291;-83
2023/10/21 01:11:59;;;;;;;5.90;3.63;;;;;;;;;;5032359;28;20251;-82
2023/10/21 01:14:26;;;;;;;7.23;3.53;;;;;;;;;;5032241;28;20627;-83
2023/10/21 01:16:57;;;;;;;4.57;3.30;;;;;;;;;;5032089;28;20667;-83
2023/10/21 01:19:25;;;;;;;8.07;2.93;;;;;;;;;;5033109;28;20228;-84
2023/10/21 01:21:54;;;;;;;5.23;3.37;;;;;;;;;;5033057;28;20218;-83
2023/10/21 01:24:23;;;;;;;3.07;2.87;;;;;;;;;;5033201;28;20285;-84
2023/10/21 01:26:53;;;;;;;6.10;3.20;;;;;;;;;;5032832;28;20200;-83
2023/10/21 01:29:24;;;;;;;8.93;2.87;;;;;;;;;;5032536;28;20203;-83
2023/10/21 01:31:52;;;;;;;11.20;3.50;;;;;;;;;;5031530;28;20313;-83
2023/10/21 01:34:20;;;;;;;3.40;2.97;;;;;;;;;;5031533;28;20227;-82
2023/10/21 01:36:50;;;;;;;3.60;3.17;;;;;;;;;;5032165;28;20574;-84
2023/10/21 01:39:19;;;;;;;2.53;2.33;;;;;;;;;;5032446;28;20279;-83
2023/10/21 01:41:50;;;;;;;9.07;2.57;;;;;;;;;;5030881;28;20210;-83
2023/10/21 01:44:19;;;;;;;5.20;3.20;;;;;;;;;;5038185;28;20734;-83
2023/10/21 01:46:46;;;;;;;3.60;2.40;;;;;;;;;;5031603;28;20700;-83
2023/10/21 01:49:14;;;;;;;3.90;2.77;;;;;;;;;;5032394;28;20204;-83
2023/10/21 01:51:44;;;;;;;4.17;2.80;;;;;;;;;;5031369;28;20653;-84
2023/10/21 01:54:11;;;;;;;3.77;2.27;;;;;;;;;;5026857;28;20586;-84
2023/10/21 01:56:41;;;;;;;5.10;2.40;;;;;;;;;;5012491;28;20210;-83
2023/10/21 01:59:14;;;;;;;3.20;2.17;;;;;;;;;;5012302;28;20288;-82
2023/10/21 02:01:43;;;;;;;3.93;2.40;;;;;;;;;;5011928;28;20330;-82
2023/10/21 02:04:11;;;;;;;4.00;2.47;;;;;;;;;;5011536;28;20214;-84
2023/10/21 02:06:41;;;;;;;5.13;2.67;;;;;;;;;;5011609;28;20268;-84
2023/10/21 02:09:12;;;;;;;3.07;2.77;;;;;;;;;;5012011;28;20679;-84
2023/10/21 02:11:41;;;;;;;4.10;2.80;;;;;;;;;;5012408;28;20224;-84
2023/10/21 02:14:14;;;;;;;6.90;3.03;;;;;;;;;;5011001;28;20262;-82
2023/10/21 02:16:42;;;;;;;2.47;2.27;;;;;;;;;;5011142;28;20803;-85
2023/10/21 02:19:10;;;;;;;2.70;2.50;;;;;;;;;;5012105;28;20208;-83
2023/10/21 02:21:45;;;;;;;2.60;2.40;;;;;;;;;;5011889;28;20239;-83
2023/10/21 02:24:15;;;;;;;3.23;2.07;;;;;;;;;;5016078;28;20222;-83
2023/10/21 02:26:45;;;;;;;2.40;2.30;;;;;;;;;;5031908;28;20192;-84
2023/10/21 02:29:16;;;;;;;3.57;1.97;;;;;;;;;;5030454;28;20662;-84
2023/10/21 02:31:46;;;;;;;7.53;2.60;;;;;;;;;;5031201;28;20259;-83
2023/10/21 02:34:17;;;;;;;3.53;2.17;;;;;;;;;;5030619;28;20254;-84
2023/10/21 02:36:45;;;;;;;10.93;2.50;;;;;;;;;;5030787;28;20227;-83
2023/10/21 02:39:17;;;;;;;6.43;2.23;;;;;;;;;;5030697;28;20215;-83
2023/10/21 02:41:44;;;;;;;2.33;2.13;;;;;;;;;;5030457;28;20287;-84
2023/10/21 02:44:14;;;;;;;1.83;1.73;;;;;;;;;;5031434;28;20640;-83
2023/10/21 02:46:42;;;;;;;5.53;2.37;;;;;;;;;;5031642;28;20223;-83
2023/10/21 02:49:11;;;;;;;8.10;2.30;;;;;;;;;;5031572;28;20208;-83
2023/10/21 02:51:42;;;;;;;2.57;2.33;;;;;;;;;;5030640;28;20260;-83
2023/10/21 02:54:12;;;;;;;2.40;2.20;;;;;;;;;;5030514;28;20205;-83
2023/10/21 02:56:43;;;;;;;3.47;2.37;;;;;;;;;;5030739;28;20209;-83
2023/10/21 02:59:13;;;;;;;2.43;2.23;;;;;;;;;;5031237;28;20649;-83
2023/10/21 03:01:43;;;;;;;7.60;2.23;;;;;;;;;;5031059;28;20225;-84
2023/10/21 03:04:11;;;;;;;2.97;2.63;;;;;;;;;;5029928;28;20207;-84
2023/10/21 03:06:40;;;;;;;2.47;2.23;;;;;;;;;;5030867;28;20209;-84
2023/10/21 03:09:09;;;;;;;5.70;2.50;;;;;;;;;;5030472;28;20193;-83
2023/10/21 03:11:36;;;;;;;2.43;2.23;;;;;;;;;;5030952;28;20358;-83
2023/10/21 03:14:07;;;;;;;4.83;2.03;;;;;;;;;;5039492;28;20257;-83
2023/10/21 03:16:38;;;;;;;7.60;2.40;;;;;;;;;;5038008;28;20553;-84
2023/10/21 03:19:07;;;;;;;2.47;2.20;;;;;;;;;;5029416;28;20327;-82
2023/10/21 03:21:35;;;;;;;3.57;2.83;;;;;;;;;;5030804;28;20283;-83
2023/10/21 03:24:03;;;;;;;3.93;3.07;;;;;;;;;;5030470;28;20290;-83
2023/10/21 03:26:38;;;;;;;2.60;2.13;;;;;;;;;;5029604;28;20726;-84
2023/10/21 03:29:09;;;;;;;2.33;2.23;;;;;;;;;;5029796;28;20207;-84
2023/10/21 03:31:37;;;;;;;5.03;2.00;;;;;;;;;;5031257;28;20251;-84
2023/10/21 03:34:07;;;;;;;3.73;2.13;;;;;;;;;;5051613;28;20201;-85
2023/10/21 03:36:35;;;;;;;2.60;1.70;;;;;;;;;;5054904;28;20188;-84
2023/10/21 03:39:02;;;;;;;4.07;2.10;;;;;;;;;;5055913;28;20200;-83
2023/10/21 03:41:30;;;;;;;4.73;1.87;;;;;;;;;;5055730;28;20187;-84
2023/10/21 03:44:01;;;;;;;8.20;2.20;;;;;;;;;;5037115;28;20587;-84
2023/10/21 03:46:28;;;;;;;6.33;2.53;;;;;;;;;;5030872;28;20227;-83
2023/10/21 03:48:57;;;;;;;2.83;2.10;;;;;;;;;;5030018;28;20207;-83
2023/10/21 03:51:29;;;;;;;7.40;2.23;;;;;;;;;;5029962;28;20308;-84
2023/10/21 03:53:58;;;;;;;6.83;2.50;;;;;;;;;;5029259;28;20715;-84
2023/10/21 03:56:27;;;;;;;4.10;2.43;;;;;;;;;;5029687;28;20303;-83
2023/10/21 03:58:56;;;;;;;2.73;2.30;;;;;;;;;;5029904;28;20218;-83
2023/10/21 04:01:23;;;;;;;3.67;2.73;;;;;;;;;;5030078;28;20242;-84
2023/10/21 04:03:50;;;;;;;2.23;2.03;;;;;;;;;;5029854;28;20278;-82
2023/10/21 04:06:21;;;;;;;2.87;2.07;;;;;;;;;;5035070;28;20231;-83
2023/10/21 04:08:53;;;;;;;3.40;2.27;;;;;;;;;;5045778;28;20224;-82
2023/10/21 04:11:24;;;;;;;5.80;2.23;;;;;;;;;;5043800;28;20196;-84
2023/10/21 04:13:54;;;;;;;7.70;2.43;;;;;;;;;;5041785;28;20191;-84
2023/10/21 04:16:21;;;;;;;6.00;2.50;;;;;;;;;;5039477;28;20239;-83
2023/10/21 04:18:51;;;;;;;2.77;2.23;;;;;;;;;;5035150;28;20719;-83
2023/10/21 04:21:20;;;;;;;7.07;2.07;;;;;;;;;;5034394;28;20200;-84
2023/10/21 04:23:49;;;;;;;4.07;2.20;;;;;;;;;;5035273;28;20624;-82
2023/10/21 04:26:21;;;;;;;3.20;2.30;;;;;;;;;;5033740;28;20215;-83
2023/10/21 04:28:51;;;;;;;2.27;2.17;;;;;;;;;;5034589;28;20212;-83
2023/10/21 04:31:23;;;;;;;3.63;2.37;;;;;;;;;;5035897;28;20205;-83
2023/10/21 04:33:52;;;;;;;4.73;2.27;;;;;;;;;;5036928;28;20188;-84
2023/10/21 04:36:21;;;;;;;2.73;1.60;;;;;;;;;;5049800;28;20200;-84
2023/10/21 04:38:48;;;;;;;2.57;2.03;;;;;;;;;;5046048;28;20586;-83
2023/10/21 04:41:15;;;;;;;7.07;2.67;;;;;;;;;;5034598;28;20250;-84
2023/10/21 04:43:44;;;;;;;9.40;2.17;;;;;;;;;;5034136;28;20315;-83
2023/10/21 04:46:11;;;;;;;3.23;2.53;;;;;;;;;;5032910;28;20193;-84
2023/10/21 04:48:41;;;;;;;6.53;2.43;;;;;;;;;;5032515;28;20200;-83
2023/10/21 04:51:11;;;;;;;5.33;2.97;;;;;;;;;;5033920;28;20636;-84
2023/10/21 04:53:39;;;;;;;7.37;2.87;;;;;;;;;;5032467;28;20709;-84
2023/10/21 04:56:09;;;;;;;2.83;2.63;;;;;;;;;;5032870;28;20200;-84
2023/10/21 04:58:38;;;;;;;2.03;1.80;;;;;;;;;;5032330;28;20200;-84
2023/10/21 05:01:10;;;;;;;2.87;2.17;;;;;;;;;;5031769;28;20254;-82
2023/10/21 05:03:38;;;;;;;2.10;1.90;;;;;;;;;;5032246;28;20208;-83
2023/10/21 05:06:05;;;;;;;2.93;2.30;;;;;;;;;;5033272;28;20304;-83
2023/10/21 05:08:34;;;;;;;3.20;2.03;;;;;;;;;;5032458;28;20215;-83
2023/10/21 05:11:02;;;;;;;2.80;1.80;;;;;;;;;;5031908;28;20195;-83
2023/10/21 05:13:30;;;;;;;3.60;2.13;;;;;;;;;;5032966;28;20227;-85
2023/10/21 05:16:00;;;;;;;7.43;2.30;;;;;;;;;;5031950;28;20265;-83
2023/10/21 05:18:30;;;;;;;4.32;2.60;;;;;;;;;;5031816;28;20198;-84
2023/10/21 05:20:58;;;;;;;6.78;3.03;;;;;;;;;;5032562;28;20279;-83
2023/10/21 05:23:28;;;;;;;2.65;2.50;;;;;;;;;;5032681;28;20251;-83
2023/10/21 05:25:58;;;;;;;3.47;3.15;;;;;;;;;;5032002;28;20210;-84
2023/10/21 05:28:26;;;;;;;6.25;3.28;;;;;;;;;;5032755;28;20216;-83
2023/10/21 05:31:07;;;;;;;3.47;3.17;;;;;;;;;;5031903;28;20588;-85
2023/10/21 05:33:57;;;;;;;2.72;2.60;;;;;;;;;;5031598;28;20227;-84
2023/10/21 05:39:16;;;;;;;9.32;2.78;;;;;;;;;;5031412;28;20206;-84
2023/10/21 05:41:46;;;;;;;7.43;2.80;;;;;;;;;;5031811;28;20241;-84
2023/10/21 05:44:13;;;;;;;3.28;2.97;;;;;;;;;;5032786;28;20216;-83
2023/10/21 05:46:43;;;;;;;5.55;2.55;;;;;;;;;;5031631;28;20200;-83
2023/10/21 05:49:14;;;;;;;7.85;3.00;;;;;;;;;;5031811;28;20196;-83
2023/10/21 05:51:46;;;;;;;3.75;2.60;;;;;;;;;;5032188;28;20204;-83
2023/10/21 05:54:21;;;;;;;3.22;2.63;;;;;;;;;;5032083;28;20200;-83
2023/10/21 05:56:50;;;;;;;6.18;2.70;;;;;;;;;;5031916;28;20210;-83
2023/10/21 05:59:20;;;;;;;4.60;2.60;;;;;;;;;;5032973;28;20254;-83
2023/10/21 06:01:48;;;;;;;4.40;2.70;;;;;;;;;;5032441;28;20496;-84
2023/10/21 06:04:20;;;;;;;2.97;2.15;;;;;;;;;;5031932;28;20212;-83
2023/10/21 06:06:49;;;;;;;4.50;2.25;;;;;;;;;;5031951;28;20200;-83
2023/10/21 06:09:19;;;;;;;6.10;2.30;;;;;;;;;;5031465;28;20210;-85
2023/10/21 06:11:48;;;;;;;3.50;1.98;;;;;;;;;;5033532;28;20264;-84
2023/10/21 06:14:21;;;;;;;5.68;2.40;;;;;;;;;;5040282;28;20322;-84
2023/10/21 06:16:49;;;;;;;6.70;2.83;;;;;;;;;;5038281;28;20303;-84
2023/10/21 06:19:21;;;;;;;7.82;2.60;;;;;;;;;;5055280;28;20207;-85
2023/10/21 06:21:48;;;;;;;3.72;2.35;;;;;;;;;;5055622;28;20200;-83
2023/10/21 06:24:15;;;;;;;6.80;2.22;;;;;;;;;;5055905;28;20207;-83
2023/10/21 06:26:43;;;;;;;1.98;1.88;;;;;;;;;;5032897;28;20315;-84
2023/10/21 06:29:12;;;;;;;4.32;2.47;;;;;;;;;;5030045;28;20188;-84
2023/10/21 06:31:41;;;;;;;2.03;1.88;;;;;;;;;;5031388;28;20219;-84
2023/10/21 06:34:10;;;;;;;2.20;2.00;;;;;;;;;;5030949;28;20730;-84
2023/10/21 06:36:39;;;;;;;2.55;2.40;;;;;;;;;;5030834;28;20714;-84
2023/10/21 06:39:05;;;;;;;4.20;2.08;;;;;;;;;;5031116;28;20200;-84
2023/10/21 06:41:39;;;;;;;3.45;2.10;;;;;;;;;;5031477;28;20734;-84
2023/10/21 06:44:09;;;;;;;2.30;1.73;;;;;;;;;;5031718;28;20644;-84
2023/10/21 06:46:38;;;;;;;2.72;2.00;;;;;;;;;;5029199;28;20188;-84
2023/10/21 06:49:06;;;;;;;3.65;2.00;;;;;;;;;;5030706;28;20266;-85
2023/10/21 06:51:35;;;;;;;3.45;2.05;;;;;;;;;;5030453;28;20257;-84
2023/10/21 06:54:09;;;;;;;5.25;2.22;;;;;;;;;;5029832;28;20767;-85
2023/10/21 06:56:37;;;;;;;4.63;2.17;;;;;;;;;;5022720;28;20287;-83
2023/10/21 06:59:05;;;;;;;5.88;2.15;;;;;;;;;;5030784;28;20196;-83
2023/10/21 07:01:34;;;;;;;5.35;2.67;;;;;;;;;;5031387;28;20654;-83
2023/10/21 07:04:24;;;;;;;2.83;2.20;;;;;;;;;;5033314;28;20211;-83
2023/10/21 07:06:55;;;;;;;9.80;1.90;;;;;;;;;;5029531;28;20657;-85
2023/10/21 07:09:34;;;;;;;7.28;2.95;;;;;;;;;;5031061;28;20283;-84
2023/10/21 07:12:06;;;;;;;6.97;2.67;;;;;;;;;;5030081;28;20698;-84
2023/10/21 07:14:34;;;;;;;5.63;2.20;;;;;;;;;;5030571;28;20212;-83
2023/10/21 07:17:02;;;;;;;2.08;1.98;;;;;;;;;;5030392;28;20326;-82
2023/10/21 07:19:32;;;;;;;9.57;2.15;;;;;;;;;;5031267;28;20275;-82
2023/10/21 07:22:04;;;;;;;4.05;2.28;;;;;;;;;;5037110;28;20192;-85
2023/10/21 07:24:34;;;;;;;7.57;2.30;;;;;;;;;;5029068;28;20204;-84
2023/10/21 07:27:02;;;;;;;4.93;1.73;;;;;;;;;;5030490;28;20235;-85
2023/10/21 07:29:31;;;;;;;2.78;2.42;;;;;;;;;;5031198;28;20692;-84
2023/10/21 07:32:02;;;;;;;4.07;2.13;;;;;;;;;;5029523;28;20207;-84
2023/10/21 07:34:29;;;;;;;3.33;2.40;;;;;;;;;;5026784;28;20322;-84
2023/10/21 07:37:00;;;;;;;4.57;2.40;;;;;;;;;;5030296;28;20299;-85
2023/10/21 07:39:36;;;;;;;4.70;2.22;;;;;;;;;;5028460;28;20685;-84
2023/10/21 07:42:05;;;;;;;3.13;2.08;;;;;;;;;;5029309;28;20708;-85
2023/10/21 07:44:36;;;;;;;3.85;2.42;;;;;;;;;;5028969;28;20188;-83
2023/10/21 07:47:06;;;;;;;2.33;2.13;;;;;;;;;;5029566;28;20322;-85
2023/10/21 07:49:35;;;;;;;5.18;2.40;;;;;;;;;;5023809;28;20208;-85
2023/10/21 07:52:03;;;;;;;3.75;2.28;;;;;;;;;;5020088;28;20227;-84
2023/10/21 07:54:31;;;;;;;6.10;2.78;;;;;;;;;;5024841;28;20647;-84
2023/10/21 07:57:02;;;;;;;4.78;2.63;;;;;;;;;;5030248;28;20592;-83
2023/10/21 07:59:31;;;;;;;3.58;2.78;;;;;;;;;;5029900;28;20226;-84
2023/10/21 08:02:03;;;;;;;2.67;2.47;;;;;;;;;;5013391;28;20307;-85
2023/10/21 08:04:32;;;;;;;4.28;2.65;;;;;;;;;;5027838;28;20274;-84
2023/10/21 08:07:01;;;;;;;4.05;3.20;;;;;;;;;;5029803;28;20286;-86
2023/10/21 08:09:30;;;;;;;16.48;3.83;;;;;;;;;;5028778;28;20592;-83
2023/10/21 08:12:02;;;;;;;3.85;2.97;;;;;;;;;;5028751;28;20212;-84
2023/10/21 08:14:40;;;;;;;6.20;3.40;;;;;;;;;;5029346;28;20306;-84
2023/10/21 08:17:09;;;;;;;4.55;3.75;;;;;;;;;;5029452;28;20324;-84
2023/10/21 08:19:36;;;;;;;5.50;3.25;;;;;;;;;;5029678;28;20280;-83
2023/10/21 08:22:11;;;;;;;8.38;3.47;;;;;;;;;;5010254;28;20792;-84
2023/10/21 08:24:38;;;;;;;7.97;3.13;;;;;;;;;;5027808;28;20194;-83
2023/10/21 08:27:11;;;;;;;5.40;3.13;;;;;;;;;;5027706;28;20232;-84
2023/10/21 08:29:42;;;;;;;8.38;3.10;;;;;;;;;;5027827;28;20196;-85
2023/10/21 08:32:18;;;;;;;3.22;2.80;;;;;;;;;;5028820;28;20235;-85
2023/10/21 08:34:47;;;;;;;5.50;3.00;;;;;;;;;;5017919;28;20220;-83
2023/10/21 08:37:17;;;;;;;6.78;3.20;;;;;;;;;;5019540;28;20336;-83
2023/10/21 08:39:48;;;;;;;4.10;2.90;;;;;;;;;;5010589;28;20613;-84
2023/10/21 08:42:15;;;;;;;4.75;2.63;;;;;;;;;;5028878;28;20298;-86
2023/10/21 08:44:45;;;;;;;7.80;2.95;;;;;;;;;;5016010;28;20712;-84
2023/10/21 08:47:16;;;;;;;4.63;3.10;;;;;;;;;;5029570;28;20727;-85
2023/10/21 08:49:48;;;;;;;3.55;2.70;;;;;;;;;;4996690;28;20435;-86
2023/10/21 08:52:18;;;;;;;6.18;2.50;;;;;;;;;;5031278;28;20677;-84
2023/10/21 08:54:51;;;;;;;5.68;2.80;;;;;;;;;;5026692;28;20289;-84
2023/10/21 08:57:25;;;;;;;2.88;2.55;;;;;;;;;;5033018;28;20285;-85
2023/10/21 08:59:57;;;;;;;3.85;2.08;;;;;;;;;;5029012;28;20222;-84
2023/10/21 09:02:27;;;;;;;3.30;1.60;;;;;;;;;;5031896;28;20279;-85
2023/10/21 09:05:00;;;;;;;7.47;1.30;;;;;;;;;;5026108;28;20228;-85
2023/10/21 09:07:47;;;;;;;4.45;1.42;;;;;;;;;;5032790;28;20255;-84
2023/10/21 09:10:17;;;;;;;13.55;1.83;;;;;;;;;;5025529;28;20251;-85
2023/10/21 09:12:47;;;;;;;1.42;1.20;;;;;;;;;;5035144;28;20251;-85
2023/10/21 09:15:19;;;;;;;2.17;1.25;;;;;;;;;;5029977;28;20235;-85
2023/10/21 09:17:51;;;;;;;3.65;1.27;;;;;;;;;;5032894;28;20232;-85
2023/10/21 09:20:22;;;;;;;2.90;1.50;;;;;;;;;;5030726;28;20228;-86
2023/10/21 09:22:51;;;;;;;5.10;0.98;;;;;;;;;;5043432;28;20218;-84
2023/10/21 09:25:19;;;;;;;6.18;1.42;;;;;;;;;;5043495;28;20227;-85
2023/10/21 09:27:53;;;;;;;8.88;2.15;;;;;;;;;;5239760;22;20211;-88
2023/10/21 09:30:24;;;;;;;5.40;1.20;;;;;;;;;;4985635;28;20332;-85
2023/10/21 09:32:56;;;;;;;8.30;1.50;;;;;;;;;;4975322;28;20221;-86
2023/10/21 09:35:30;;;;;;;1.50;1.25;;;;;;;;;;4962892;28;20242;-85
2023/10/21 09:38:07;;;;;;;5.22;0.85;;;;;;;;;;4974459;28;20229;-85
2023/10/21 09:40:37;;;;;;;2.53;1.08;;;;;;;;;;4972858;28;20226;-86
2023/10/21 09:43:10;;;;;;;3.42;1.13;;;;;;;;;;4973539;28;20213;-86
2023/10/21 09:45:40;;;;;;;4.90;1.20;;;;;;;;;;4970222;28;20322;-87
2023/10/21 09:48:12;;;;;;;3.72;1.10;;;;;;;;;;4973802;28;20305;-86
2023/10/21 09:50:41;;;;;;;3.42;1.08;;;;;;;;;;4971194;28;20217;-85
2023/10/21 09:53:12;;;;;;;3.95;1.27;;;;;;;;;;4973234;28;20226;-86
2023/10/21 09:55:40;;;;;;;6.85;1.52;;;;;;;;;;4968985;28;20679;-85
2023/10/21 09:58:12;;;;;;;3.80;1.17;;;;;;;;;;4973924;28;20230;-85
2023/10/21 10:00:42;;;;;;;3.35;1.30;;;;;;;;;;4973092;28;20261;-85
2023/10/21 10:03:25;;;;;;;5.28;0.73;;;;;;;;;;4972380;28;20234;-84
2023/10/21 10:05:59;;;;;;;7.33;1.40;;;;;;;;;;4972030;28;20511;-84
2023/10/21 10:08:36;;;;;;;1.13;0.90;;;;;;;;;;4972521;28;20776;-83
2023/10/21 10:11:06;;;;;;;9.38;1.20;;;;;;;;;;4972968;28;20218;-82
2023/10/21 10:13:46;;;;;;;7.57;1.08;;;;;;;;;;4972223;28;20300;-85
2023/10/21 10:16:23;;;;;;;12.85;1.70;;;;;;;;;;4972431;28;20230;-83
2023/10/21 10:18:55;;;;;;;1.83;1.13;;;;;;;;;;4972444;28;20221;-83
2023/10/21 10:21:23;;;;;;;10.70;1.45;;;;;;;;;;4972288;28;20600;-83
2023/10/21 10:23:50;;;;;;;3.67;1.15;;;;;;;;;;4972470;28;20234;-84
2023/10/21 10:26:34;;;;;;;1.42;0.80;;;;;;;;;;4954874;28;20236;-83
2023/10/21 10:29:17;;;;;;;2.38;0.85;;;;;;;;;;4968811;28;20249;-84
2023/10/21 10:31:52;;;;;;;4.47;1.35;;;;;;;;;;4971566;28;20469;-86
2023/10/21 10:34:21;;;;;;;4.82;1.20;;;;;;;;;;4971863;28;20248;-84
2023/10/21 10:36:49;;;;;;;2.17;1.15;;;;;;;;;;4973042;28;20723;-84
2023/10/21 10:39:31;;;;;;;4.13;1.10;;;;;;;;;;4969715;28;20244;-84
2023/10/21 10:42:00;;;;;;;7.40;1.33;;;;;;;;;;4972696;28;20234;-83
2023/10/21 10:44:34;;;;;;;4.07;1.27;;;;;;;;;;4970810;28;20316;-84
2023/10/21 10:47:08;;;;;;;3.45;1.17;;;;;;;;;;4980264;28;20293;-84
2023/10/21 10:49:56;;;;;;;3.35;1.27;;;;;;;;;;4980137;28;20213;-84
2023/10/21 10:52:31;;;;;;;3.67;1.13;;;;;;;;;;4985786;28;20206;-84
2023/10/21 10:55:02;;;;;;;13.10;1.27;;;;;;;;;;4984352;28;20225;-84
2023/10/21 10:57:32;;;;;;;3.83;1.63;;;;;;;;;;4981535;28;20198;-86
2023/10/21 11:00:10;;;;;;;9.70;1.40;;;;;;;;;;4980618;28;20186;-84
2023/10/21 11:02:45;;;;;;;3.67;1.42;;;;;;;;;;4979581;28;20709;-83
2023/10/21 11:05:20;;;;;;;2.63;0.88;;;;;;;;;;4983148;28;20278;-85
2023/10/21 11:07:50;;;;;;;4.38;1.20;;;;;;;;;;4991889;28;20450;-84
2023/10/21 11:10:24;;;;;;;2.28;1.20;;;;;;;;;;4995691;28;20206;-83
2023/10/21 11:12:58;;;;;;;7.85;1.30;;;;;;;;;;4995007;28;20309;-84
2023/10/21 11:15:29;;;;;;;3.90;1.40;;;;;;;;;;4990126;28;20241;-85
2023/10/21 11:18:13;;;;;;;3.47;1.77;;;;;;;;;;4995882;28;20206;-84
2023/10/21 11:20:48;;;;;;;3.20;1.20;;;;;;;;;;4993805;28;20445;-84
2023/10/21 11:23:19;;;;;;;5.00;1.70;;;;;;;;;;4996230;28;20224;-84
2023/10/21 11:25:50;;;;;;;4.63;1.63;;;;;;;;;;4994986;28;20453;-84
2023/10/21 11:28:21;;;;;;;7.23;1.63;;;;;;;;;;4976721;28;20456;-83
2023/10/21 11:30:49;;;;;;;4.43;0.85;;;;;;;;;;4980575;28;20515;-84
2023/10/21 11:33:20;;;;;;;9.10;1.10;;;;;;;;;;4981251;28;20198;-84
2023/10/21 11:35:52;;;;;;;5.43;1.40;;;;;;;;;;4983509;28;20204;-83
2023/10/21 11:38:21;;;;;;;3.33;1.40;;;;;;;;;;4980348;28;20274;-82
2023/10/21 11:40:50;;;;;;;5.25;1.25;;;;;;;;;;4976093;28;20202;-82
2023/10/21 11:43:35;;;;;;;4.00;0.98;;;;;;;;;;4980503;28;20194;-83
2023/10/21 11:46:05;;;;;;;5.50;1.90;;;;;;;;;;4977228;28;20272;-83
2023/10/21 11:48:42;;;;;;;3.55;1.27;;;;;;;;;;4972454;28;20194;-84
2023/10/21 11:51:10;;;;;;;7.65;1.10;;;;;;;;;;4973129;28;20205;-85
2023/10/21 11:53:38;;;;;;;6.35;1.30;;;;;;;;;;4972382;28;20206;-85
2023/10/21 12:02:30;;;;;;;4.93;1.23;;;;;;;;;;4942139;28;20213;-85
2023/10/21 12:35:55;;;;;;;3.03;1.30;;;;;;;;;;4975140;28;20233;-83
2023/10/21 12:38:38;;;;;;;1.75;1.25;;;;;;;;;;4976103;28;20202;-84
2023/10/21 12:41:21;;;;;;;1.48;1.35;;;;;;;;;;4976638;28;20209;-83
2023/10/21 12:43:48;;;;;;;3.75;0.90;;;;;;;;;;4976010;28;20209;-83
2023/10/21 12:46:18;;;;;;;2.80;1.48;;;;;;;;;;4975853;28;20205;-83
2023/10/21 12:48:52;;;;;;;1.52;1.05;;;;;;;;;;4976863;28;20208;-83
2023/10/21 12:51:21;;;;;;;4.43;0.95;;;;;;;;;;4977503;28;20297;-84
2023/10/21 12:53:54;;;;;;;4.18;1.25;;;;;;;;;;4975059;28;20225;-84
2023/10/21 12:56:24;;;;;;;5.32;1.27;;;;;;;;;;4975491;28;20233;-84
2023/10/21 12:58:53;;;;;;;5.45;1.20;;;;;;;;;;4975224;28;20261;-84
2023/10/21 13:01:24;;;;;;;4.25;1.13;;;;;;;;;;4975588;28;20221;-83
2023/10/21 13:03:57;;;;;;;3.92;1.67;;;;;;;;;;4975193;28;20628;-83
2023/10/21 13:06:27;;;;;;;6.85;1.55;;;;;;;;;;4975322;28;20552;-84
2023/10/21 13:09:00;;;;;;;3.97;1.42;;;;;;;;;;4975249;28;20271;-85
2023/10/21 13:11:29;;;;;;;6.13;1.42;;;;;;;;;;4975389;28;20596;-85
2023/10/21 13:13:57;;;;;;;2.78;1.45;;;;;;;;;;4974808;28;20217;-84
2023/10/21 13:16:31;;;;;;;6.07;1.40;;;;;;;;;;4974899;28;20198;-84
2023/10/21 13:19:00;;;;;;;4.65;1.50;;;;;;;;;;4975052;28;20233;-86
2023/10/21 13:21:32;;;;;;;1.45;1.23;;;;;;;;;;4974948;28;20202;-85
2023/10/21 13:24:06;;;;;;;5.65;1.10;;;;;;;;;;4974944;28;20208;-83
2023/10/21 13:26:37;;;;;;;9.35;1.30;;;;;;;;;;4974934;28;20202;-84
2023/10/21 13:29:04;;;;;;;4.13;1.10;;;;;;;;;;4974472;28;20611;-84
2023/10/21 13:31:33;;;;;;;1.63;1.50;;;;;;;;;;4974318;28;20213;-84
2023/10/21 13:34:07;;;;;;;1.98;1.33;;;;;;;;;;4975182;28;20293;-83
2023/10/21 13:36:35;;;;;;;2.58;1.25;;;;;;;;;;4974820;28;20206;-83
2023/10/21 13:39:15;;;;;;;2.67;1.40;;;;;;;;;;4974197;28;20210;-84
2023/10/21 13:41:44;;;;;;;8.07;1.40;;;;;;;;;;4978305;28;20264;-85
2023/10/21 13:44:12;;;;;;;5.82;1.38;;;;;;;;;;4976962;28;20240;-83
2023/10/21 13:46:40;;;;;;;1.00;0.98;;;;;;;;;;4974837;28;20313;-83
2023/10/21 13:49:13;;;;;;;10.10;0.95;;;;;;;;;;4974511;28;20210;-84
2023/10/21 13:51:42;;;;;;;3.65;1.13;;;;;;;;;;4974293;28;20279;-85
2023/10/21 13:54:13;;;;;;;9.68;1.30;;;;;;;;;;4974328;28;20198;-83
2023/10/21 13:56:42;;;;;;;2.60;1.33;;;;;;;;;;4974802;28;20233;-84
2023/10/21 13:59:13;;;;;;;3.53;1.48;;;;;;;;;;4974595;28;20208;-84
2023/10/21 14:01:46;;;;;;;9.77;1.52;;;;;;;;;;4974388;28;20230;-84
2023/10/21 14:04:17;;;;;;;3.90;1.08;;;;;;;;;;4974083;28;20198;-84
2023/10/21 14:06:48;;;;;;;6.97;1.20;;;;;;;;;;4974519;28;20206;-84
2023/10/21 14:09:23;;;;;;;2.67;1.20;;;;;;;;;;4974290;28;20206;-83
2023/10/21 14:11:54;;;;;;;4.53;1.40;;;;;;;;;;4975294;28;20205;-84
2023/10/21 14:14:24;;;;;;;1.95;1.40;;;;;;;;;;4975124;28;20893;-84
2023/10/21 14:16:53;;;;;;;4.63;1.20;;;;;;;;;;4974504;28;20198;-84
2023/10/21 14:19:22;;;;;;;4.80;1.00;;;;;;;;;;4973947;28;20264;-83
2023/10/21 14:21:52;;;;;;;3.33;1.10;;;;;;;;;;4974160;28;20198;-84
2023/10/21 14:24:24;;;;;;;2.58;1.27;;;;;;;;;;4973730;28;20198;-84
2023/10/21 14:26:55;;;;;;;5.55;1.17;;;;;;;;;;4974139;28;20227;-83
2023/10/21 14:29:24;;;;;;;2.35;1.10;;;;;;;;;;4973512;28;20637;-83
2023/10/21 14:31:52;;;;;;;4.68;1.25;;;;;;;;;;4973723;28;20213;-83
2023/10/21 14:34:23;;;;;;;1.77;0.95;;;;;;;;;;4972960;28;20205;-83
2023/10/21 14:36:50;;;;;;;2.17;1.40;;;;;;;;;;4973366;28;20190;-83
2023/10/21 14:39:18;;;;;;;5.32;1.27;;;;;;;;;;4972807;28;20206;-83
2023/10/21 14:41:49;;;;;;;4.18;1.20;;;;;;;;;;4973264;28;20230;-83
2023/10/21 14:44:16;;;;;;;4.47;1.60;;;;;;;;;;4973244;28;20261;-83
2023/10/21 14:46:52;;;;;;;2.90;1.38;;;;;;;;;;4972740;28;20668;-84
2023/10/21 14:49:20;;;;;;;6.28;1.50;;;;;;;;;;4972771;28;20679;-83
2023/10/21 14:51:50;;;;;;;11.50;1.50;;;;;;;;;;4973367;28;20312;-85
2023/10/21 14:54:20;;;;;;;5.50;1.05;;;;;;;;;;4972292;28;20698;-83
2023/10/21 14:56:50;;;;;;;4.97;1.23;;;;;;;;;;4972836;28;20200;-83
2023/10/21 14:59:18;;;;;;;7.03;1.13;;;;;;;;;;4973016;28;20202;-83
2023/10/21 15:01:47;;;;;;;2.67;1.52;;;;;;;;;;4972837;28;20713;-84
2023/10/21 15:04:17;;;;;;;2.28;1.48;;;;;;;;;;4972893;28;20206;-84
2023/10/21 15:06:45;;;;;;;5.43;1.35;;;;;;;;;;4973308;28;20213;-83
2023/10/21 15:09:13;;;;;;;11.20;4.50;;;;;;;;;;4972855;28;20233;-83
2023/10/21 15:11:41;;;;;;;15.18;5.68;;;;;;;;;;4974080;28;20190;-84
2023/10/21 15:14:12;;;;;;;16.58;5.05;;;;;;;;;;4974175;28;20201;-83
2023/10/21 15:16:42;;;;;;;3.92;2.30;;;;;;;;;;4986334;28;20218;-83
2023/10/21 15:19:12;;;;;;;11.00;3.22;;;;;;;;;;4991717;28;20222;-84
2023/10/21 15:21:40;;;;;;;4.50;1.92;;;;;;;;;;4995771;28;20265;-84
2023/10/21 15:24:07;;;;;;;3.35;2.50;;;;;;;;;;4995086;28;20199;-83
2023/10/21 15:26:34;;;;;;;3.63;2.88;;;;;;;;;;4974983;28;20297;-83
2023/10/21 15:29:07;;;;;;;5.53;1.60;;;;;;;;;;4973763;28;20238;-81
2023/10/21 15:31:41;;;;;;;3.67;2.78;;;;;;;;;;4973852;28;20202;-83
2023/10/21 15:34:11;;;;;;;1.98;1.88;;;;;;;;;;4973059;28;20226;-84
2023/10/21 15:36:42;;;;;;;12.15;2.03;;;;;;;;;;4972894;28;20317;-83
2023/10/21 15:39:18;;;;;;;3.20;1.80;;;;;;;;;;4973269;28;20273;-84
2023/10/21 15:41:48;;;;;;;3.38;2.20;;;;;;;;;;4973135;28;20314;-84
2023/10/21 15:44:18;;;;;;;5.97;2.03;;;;;;;;;;4973530;28;20231;-83